Time;durP1;ratioP1;P1;durP2;ratioP2;P2;SDS_P1;SDS_P2;PMS_P1;PMS_P2;Temp;Humidity;BMP_temperature;BMP_pressure;BME280_temperature;BME280_humidity;BME280_pressure;Samples;Min_cycle;Max_cycle;Signal;HPM_P1;HPM_P2
2022/01/09 00:01:12;;;;;;;7.60;4.25;;;0.20;99.90;;;;;;4894241;29;20799;-71
2022/01/09 00:03:37;;;;;;;8.88;4.55;;;0.30;99.90;;;;;;4895967;29;20059;-73
2022/01/09 00:06:02;;;;;;;7.10;3.90;;;0.20;99.90;;;;;;4891974;29;20032;-73
2022/01/09 00:08:28;;;;;;;7.78;4.05;;;0.20;99.90;;;;;;4887045;29;20037;-70
2022/01/09 00:10:53;;;;;;;9.77;4.20;;;0.10;99.90;;;;;;4894593;29;20171;-72
2022/01/09 00:13:19;;;;;;;9.43;3.83;;;0.20;99.90;;;;;;4894729;29;20040;-72
2022/01/09 00:15:44;;;;;;;7.57;3.88;;;0.20;99.90;;;;;;4897507;29;20032;-71
2022/01/09 00:18:10;;;;;;;9.23;4.15;;;0.20;99.90;;;;;;4883111;29;20032;-72
2022/01/09 00:20:35;;;;;;;10.65;4.40;;;0.50;99.90;;;;;;4897604;29;20834;-71
2022/01/09 00:23:01;;;;;;;8.65;3.50;;;0.20;99.90;;;;;;4881840;29;20132;-71
2022/01/09 00:25:28;;;;;;;9.10;3.65;;;0.20;99.90;;;;;;4896760;29;20110;-71
2022/01/09 00:27:53;;;;;;;11.43;3.88;;;0.20;99.90;;;;;;4895179;29;20768;-71
2022/01/09 00:30:19;;;;;;;9.15;3.85;;;0.10;99.90;;;;;;4895083;29;20034;-71
2022/01/09 00:32:44;;;;;;;9.75;3.97;;;0.00;99.90;;;;;;4894597;29;20063;-71
2022/01/09 00:35:10;;;;;;;12.38;3.70;;;0.00;99.90;;;;;;4878066;29;20041;-71
2022/01/09 00:37:35;;;;;;;10.27;4.20;;;0.00;99.90;;;;;;4891964;29;20106;-71
2022/01/09 00:40:01;;;;;;;10.43;4.20;;;-0.10;99.90;;;;;;4893568;29;20092;-71
2022/01/09 00:42:26;;;;;;;9.23;3.72;;;0.00;99.90;;;;;;4885537;29;20040;-71
2022/01/09 00:44:52;;;;;;;7.03;3.65;;;0.00;99.90;;;;;;4894578;29;20480;-73
2022/01/09 00:47:17;;;;;;;8.02;3.88;;;-0.10;99.90;;;;;;4894502;29;20039;-73
2022/01/09 00:49:43;;;;;;;9.30;3.70;;;-0.10;99.90;;;;;;4894881;29;20477;-70
2022/01/09 00:52:08;;;;;;;9.05;3.78;;;-0.10;99.90;;;;;;4884412;29;20071;-71
2022/01/09 00:54:34;;;;;;;8.63;3.35;;;-0.10;99.90;;;;;;4896999;29;20538;-70
2022/01/09 00:56:59;;;;;;;7.95;4.15;;;-0.10;99.90;;;;;;4881943;29;20065;-65
2022/01/09 00:59:25;;;;;;;13.32;4.03;;;0.00;99.90;;;;;;4879720;29;20039;-66
2022/01/09 01:01:50;;;;;;;9.73;3.90;;;0.00;99.90;;;;;;4882126;29;20036;-65
2022/01/09 01:04:16;;;;;;;5.75;2.97;;;0.00;99.90;;;;;;4871287;29;20509;-65
2022/01/09 01:06:41;;;;;;;6.88;3.50;;;0.00;99.90;;;;;;4893278;29;20020;-66
2022/01/09 01:09:07;;;;;;;9.27;3.97;;;0.00;99.90;;;;;;4894341;29;20053;-66
2022/01/09 01:11:32;;;;;;;8.60;3.42;;;0.00;99.90;;;;;;4898716;29;20512;-65
2022/01/09 01:13:58;;;;;;;6.30;3.25;;;0.00;99.90;;;;;;4894978;29;20028;-66
2022/01/09 01:16:23;;;;;;;6.75;3.55;;;0.00;99.90;;;;;;4897153;29;20564;-65
2022/01/09 01:18:49;;;;;;;6.15;3.20;;;-0.10;99.90;;;;;;4892193;29;20044;-65
2022/01/09 01:21:14;;;;;;;7.30;3.15;;;0.00;99.90;;;;;;4898131;29;20467;-65
2022/01/09 01:23:40;;;;;;;8.95;3.47;;;0.10;99.90;;;;;;4888364;29;20035;-65
2022/01/09 01:26:05;;;;;;;8.23;3.42;;;0.00;99.90;;;;;;4885054;29;20033;-65
2022/01/09 01:28:31;;;;;;;7.07;3.45;;;0.10;99.90;;;;;;4895617;29;20159;-65
2022/01/09 01:30:56;;;;;;;6.15;3.75;;;0.10;99.90;;;;;;4895405;29;20040;-65
2022/01/09 01:33:22;;;;;;;13.70;3.70;;;0.20;99.90;;;;;;4891524;29;20036;-65
2022/01/09 01:35:47;;;;;;;8.32;3.50;;;0.20;99.90;;;;;;4877929;29;20032;-64
2022/01/09 01:38:13;;;;;;;11.38;4.05;;;0.20;99.90;;;;;;4899332;29;20036;-64
2022/01/09 01:40:40;;;;;;;8.52;4.25;;;0.10;99.90;;;;;;4895606;29;20028;-66
2022/01/09 01:43:05;;;;;;;9.38;4.20;;;0.10;99.90;;;;;;4882980;29;20041;-65
2022/01/09 01:45:31;;;;;;;9.45;4.03;;;0.00;99.90;;;;;;4876013;29;20029;-65
2022/01/09 01:48:04;;;;;;;7.47;4.03;;;0.00;99.90;;;;;;4888742;29;20024;-66
2022/01/09 01:50:34;;;;;;;11.05;4.55;;;0.00;99.90;;;;;;4897901;29;20036;-65
2022/01/09 01:53:01;;;;;;;9.60;4.50;;;0.20;99.90;;;;;;4896736;29;20035;-65
2022/01/09 01:55:26;;;;;;;10.88;4.65;;;0.00;99.90;;;;;;4886121;29;20044;-65
2022/01/09 01:57:52;;;;;;;10.93;5.00;;;-0.10;99.90;;;;;;4897314;29;20032;-65
2022/01/09 02:00:17;;;;;;;8.73;4.63;;;-0.10;99.90;;;;;;4891584;29;20036;-65
2022/01/09 02:02:43;;;;;;;9.40;4.95;;;-0.10;99.90;;;;;;4891532;29;20035;-64
2022/01/09 02:05:08;;;;;;;12.75;4.68;;;-0.20;99.90;;;;;;4898053;29;20077;-64
2022/01/09 02:07:34;;;;;;;10.48;5.15;;;-0.30;99.90;;;;;;4884196;29;20035;-64
2022/01/09 02:09:59;;;;;;;12.88;5.25;;;-0.30;99.90;;;;;;4874711;29;20068;-64
2022/01/09 02:12:25;;;;;;;14.38;5.40;;;-0.30;99.90;;;;;;4897503;29;20032;-64
2022/01/09 02:14:51;;;;;;;13.73;5.25;;;-0.30;99.90;;;;;;4895794;29;20040;-64
2022/01/09 02:17:17;;;;;;;9.10;5.05;;;-0.30;99.90;;;;;;4880902;29;20164;-64
2022/01/09 02:19:42;;;;;;;7.90;4.65;;;-0.30;99.90;;;;;;4885558;29;20048;-64
2022/01/09 02:22:11;;;;;;;10.57;4.88;;;-0.30;99.90;;;;;;4879956;29;20044;-64
2022/01/09 02:24:36;;;;;;;8.52;5.00;;;-0.30;99.90;;;;;;4876356;29;20063;-64
2022/01/09 02:27:02;;;;;;;8.35;4.78;;;-0.20;99.90;;;;;;4894553;29;20144;-64
2022/01/09 02:29:27;;;;;;;15.45;5.32;;;-0.20;99.90;;;;;;4888741;29;20043;-64
2022/01/09 02:31:53;;;;;;;9.52;5.00;;;-0.20;99.90;;;;;;4877544;29;20793;-64
2022/01/09 02:34:18;;;;;;;11.80;5.20;;;-0.20;99.90;;;;;;4898538;29;20063;-64
2022/01/09 02:36:44;;;;;;;9.20;4.53;;;-0.10;99.90;;;;;;4860005;29;20056;-64
2022/01/09 02:39:09;;;;;;;11.23;5.00;;;-0.20;99.90;;;;;;4883795;29;20071;-64
2022/01/09 02:41:35;;;;;;;12.27;5.25;;;-0.20;99.90;;;;;;4881600;29;20040;-64
2022/01/09 02:44:00;;;;;;;11.40;5.03;;;-0.20;99.90;;;;;;4881031;29;20519;-65
2022/01/09 02:48:52;;;;;;;13.43;5.63;;;-0.20;99.90;;;;;;4898209;29;20036;-64
2022/01/09 02:51:18;;;;;;;11.90;5.80;;;-0.30;99.90;;;;;;4882616;29;20156;-64
2022/01/09 02:53:46;;;;;;;8.63;4.75;;;-0.40;99.90;;;;;;4893846;29;20125;-64
2022/01/09 02:56:12;;;;;;;12.05;5.15;;;-0.30;99.90;;;;;;4896976;29;20249;-64
2022/01/09 02:58:37;;;;;;;10.48;5.03;;;-0.30;99.90;;;;;;4897315;29;20678;-64
2022/01/09 03:01:03;;;;;;;13.05;4.97;;;-0.30;99.90;;;;;;4897152;29;20036;-64
2022/01/09 03:03:29;;;;;;;10.88;5.20;;;-0.40;99.90;;;;;;4884050;29;20032;-64
2022/01/09 03:05:54;;;;;;;11.43;5.65;;;-0.50;99.90;;;;;;4891423;29;20497;-64
2022/01/09 03:08:20;;;;;;;15.98;5.05;;;-0.60;99.90;;;;;;4897738;29;20056;-64
2022/01/09 03:10:45;;;;;;;11.57;5.35;;;-0.50;99.90;;;;;;4896560;29;20032;-64
2022/01/09 03:13:11;;;;;;;11.68;5.43;;;-0.50;99.90;;;;;;4895253;29;20986;-65
2022/01/09 03:15:36;;;;;;;11.85;5.32;;;-0.60;99.90;;;;;;4886689;29;20035;-64
2022/01/09 03:18:02;;;;;;;14.98;5.95;;;-0.60;99.90;;;;;;4881749;29;20036;-64
2022/01/09 03:20:27;;;;;;;12.50;5.35;;;-0.70;99.90;;;;;;4895692;29;20416;-64
2022/01/09 03:22:54;;;;;;;12.55;5.60;;;-0.70;99.90;;;;;;4880253;29;20035;-64
2022/01/09 03:25:20;;;;;;;13.98;6.03;;;-0.60;99.90;;;;;;4881337;29;20036;-69
2022/01/09 03:27:45;;;;;;;12.15;5.20;;;-0.70;99.90;;;;;;4884283;29;20044;-68
2022/01/09 03:30:11;;;;;;;12.65;5.28;;;-0.80;99.90;;;;;;4896125;29;20040;-68
2022/01/09 03:32:36;;;;;;;13.95;5.47;;;-0.70;99.90;;;;;;4893926;29;20114;-69
2022/01/09 03:35:02;;;;;;;12.63;5.63;;;-0.70;99.90;;;;;;4893859;29;20043;-70
2022/01/09 03:37:27;;;;;;;14.75;5.43;;;-0.70;99.90;;;;;;4871317;29;20094;-71
2022/01/09 03:39:53;;;;;;;10.57;5.15;;;-0.70;99.90;;;;;;4885222;29;20050;-71
2022/01/09 03:42:18;;;;;;;16.85;6.05;;;-0.60;99.90;;;;;;4897122;29;20840;-69
2022/01/09 03:44:44;;;;;;;16.27;6.72;;;-0.60;99.90;;;;;;4897944;29;20028;-68
2022/01/09 03:47:09;;;;;;;10.88;6.10;;;-0.60;99.90;;;;;;4891621;29;20115;-70
2022/01/09 03:49:35;;;;;;;13.75;5.60;;;-0.60;99.90;;;;;;4877828;29;20028;-68
2022/01/09 03:52:00;;;;;;;11.88;5.88;;;-0.60;99.90;;;;;;4898433;29;20031;-69
2022/01/09 03:54:26;;;;;;;16.17;6.45;;;-0.70;99.90;;;;;;4896513;29;20041;-69
2022/01/09 03:56:51;;;;;;;14.98;6.57;;;-0.60;99.90;;;;;;4894141;29;20032;-69
2022/01/09 03:59:17;;;;;;;14.63;5.80;;;-0.70;99.90;;;;;;4893296;29;20094;-69
2022/01/09 04:01:42;;;;;;;14.75;6.38;;;-0.70;99.90;;;;;;4881627;29;20031;-68
2022/01/09 04:04:08;;;;;;;12.00;6.13;;;-0.70;99.90;;;;;;4882089;29;20923;-69
2022/01/09 04:06:33;;;;;;;14.82;6.53;;;-0.80;99.90;;;;;;4883041;29;20067;-69
2022/01/09 04:09:06;;;;;;;12.57;6.22;;;-0.70;99.90;;;;;;4871374;29;20861;-69
2022/01/09 04:11:36;;;;;;;14.23;6.13;;;-0.70;99.90;;;;;;4895433;29;20032;-69
2022/01/09 04:14:01;;;;;;;14.60;6.25;;;-0.70;99.90;;;;;;4881577;29;20555;-70
2022/01/09 04:16:27;;;;;;;16.05;7.10;;;-0.70;99.90;;;;;;4882582;29;20032;-69
2022/01/09 04:18:53;;;;;;;15.77;6.03;;;-0.10;99.90;;;;;;4894712;29;20028;-69
2022/01/09 04:21:19;;;;;;;10.63;5.85;;;-0.80;99.90;;;;;;4896495;29;20032;-69
2022/01/09 04:23:44;;;;;;;11.75;6.10;;;-0.80;99.90;;;;;;4895460;29;20660;-72
2022/01/09 04:26:10;;;;;;;14.27;5.68;;;-0.80;99.90;;;;;;4893698;29;20028;-69
2022/01/09 04:28:35;;;;;;;11.40;5.55;;;-0.70;99.90;;;;;;4896111;29;20056;-69
2022/01/09 04:31:00;;;;;;;15.88;5.55;;;-0.70;99.90;;;;;;4897632;29;20706;-70
2022/01/09 04:33:26;;;;;;;15.30;6.13;;;-0.70;99.90;;;;;;4883917;29;20064;-69
2022/01/09 04:35:51;;;;;;;13.38;6.00;;;-0.50;99.90;;;;;;4890679;29;20123;-69
2022/01/09 04:38:17;;;;;;;10.65;5.70;;;-0.60;99.90;;;;;;4894508;29;20663;-69
2022/01/09 04:40:42;;;;;;;12.15;5.88;;;-0.60;99.90;;;;;;4878999;29;20389;-69
2022/01/09 04:43:10;;;;;;;14.10;5.60;;;-0.60;99.90;;;;;;4877420;29;20060;-68
2022/01/09 04:45:35;;;;;;;13.05;5.82;;;-0.60;99.90;;;;;;4890024;29;20163;-69
2022/01/09 04:48:05;;;;;;;10.48;5.30;;;-0.60;99.90;;;;;;4892174;29;20586;-69
2022/01/09 04:50:33;;;;;;;13.68;5.47;;;-0.50;99.90;;;;;;4891309;29;20032;-69
2022/01/09 04:53:00;;;;;;;16.13;5.13;;;-0.60;99.90;;;;;;4884611;29;20036;-69
2022/01/09 04:55:26;;;;;;;14.35;5.60;;;-0.60;99.90;;;;;;4893777;29;20047;-68
2022/01/09 04:57:51;;;;;;;13.77;5.15;;;-0.60;99.90;;;;;;4889794;29;20024;-68
2022/01/09 05:00:17;;;;;;;14.75;5.45;;;-0.60;99.90;;;;;;4890759;29;20079;-69
2022/01/09 05:02:42;;;;;;;7.75;4.68;;;-0.60;99.90;;;;;;4896659;29;20036;-68
2022/01/09 05:05:09;;;;;;;12.73;5.40;;;-0.40;99.90;;;;;;4890356;29;20044;-69
2022/01/09 05:07:34;;;;;;;11.98;5.40;;;-0.50;99.90;;;;;;4891355;29;20124;-68
2022/01/09 05:10:00;;;;;;;11.75;4.63;;;-0.40;99.90;;;;;;4884548;29;20445;-68
2022/01/09 05:12:25;;;;;;;12.20;4.60;;;-0.30;99.90;;;;;;4883453;29;20033;-69
2022/01/09 05:14:51;;;;;;;12.85;4.55;;;-0.30;99.90;;;;;;4895880;29;20092;-69
2022/01/09 05:17:17;;;;;;;14.10;5.10;;;-0.20;99.90;;;;;;4882978;29;20047;-69
2022/01/09 05:19:43;;;;;;;8.95;4.55;;;-0.20;99.90;;;;;;4897914;29;20344;-68
2022/01/09 05:22:08;;;;;;;11.20;5.13;;;0.30;99.90;;;;;;4883196;29;20044;-68
2022/01/09 05:24:34;;;;;;;9.52;4.57;;;-0.20;99.90;;;;;;4895630;29;20039;-68
2022/01/09 05:26:59;;;;;;;14.38;5.05;;;-0.20;99.90;;;;;;4889860;29;20496;-68
2022/01/09 05:29:25;;;;;;;12.05;4.82;;;-0.20;99.90;;;;;;4892923;29;20163;-68
2022/01/09 05:31:50;;;;;;;10.98;4.22;;;-0.20;99.90;;;;;;4894143;29;20028;-68
2022/01/09 05:34:16;;;;;;;10.40;4.57;;;-0.20;99.90;;;;;;4886292;29;20040;-68
2022/01/09 05:36:41;;;;;;;10.70;4.50;;;-0.20;99.90;;;;;;4895119;29;20079;-69
2022/01/09 05:39:07;;;;;;;10.30;4.38;;;-0.20;99.90;;;;;;4895316;29;20077;-68
2022/01/09 05:41:32;;;;;;;11.60;4.85;;;-0.20;99.90;;;;;;4891031;29;20556;-68
2022/01/09 05:43:58;;;;;;;12.23;4.25;;;-0.20;99.90;;;;;;4890528;29;20501;-68
2022/01/09 05:46:23;;;;;;;12.13;4.47;;;-0.10;99.90;;;;;;4894543;29;20033;-68
2022/01/09 05:48:49;;;;;;;13.20;4.60;;;-0.10;99.90;;;;;;4888176;29;20171;-68
2022/01/09 05:51:14;;;;;;;10.45;4.97;;;-0.10;99.90;;;;;;4892286;29;20749;-69
2022/01/09 05:53:40;;;;;;;9.20;4.88;;;-0.10;99.90;;;;;;4896599;29;20043;-69
2022/01/09 05:56:05;;;;;;;8.68;4.80;;;-0.10;99.90;;;;;;4892378;29;20401;-68
2022/01/09 05:58:33;;;;;;;8.55;4.10;;;0.00;99.90;;;;;;4879171;29;20142;-69
2022/01/09 06:00:59;;;;;;;8.80;4.70;;;0.00;99.90;;;;;;4885472;29;20401;-68
2022/01/09 06:03:24;;;;;;;10.98;4.57;;;0.00;99.90;;;;;;4892547;29;20048;-68
2022/01/09 06:05:51;;;;;;;11.82;4.70;;;0.00;99.90;;;;;;4879225;29;20075;-69
2022/01/09 06:08:16;;;;;;;9.90;4.18;;;0.00;99.90;;;;;;4883838;29;20082;-68
2022/01/09 06:10:42;;;;;;;8.20;4.30;;;0.00;99.90;;;;;;4876833;29;20020;-68
2022/01/09 06:13:07;;;;;;;8.95;4.00;;;0.10;99.90;;;;;;4896957;29;20508;-69
2022/01/09 06:15:33;;;;;;;9.18;4.25;;;0.00;99.90;;;;;;4885781;29;20097;-68
2022/01/09 06:17:58;;;;;;;10.15;4.38;;;0.10;99.90;;;;;;4896871;29;20115;-69
2022/01/09 06:20:24;;;;;;;9.02;4.25;;;0.10;99.90;;;;;;4899389;29;20036;-69
2022/01/09 06:22:49;;;;;;;9.77;4.85;;;0.10;99.90;;;;;;4898850;29;20038;-69
2022/01/09 06:25:15;;;;;;;7.55;4.53;;;0.20;99.90;;;;;;4891739;29;20064;-69
2022/01/09 06:27:40;;;;;;;8.50;4.00;;;0.20;99.90;;;;;;4897083;29;20115;-69
2022/01/09 06:30:06;;;;;;;9.93;4.40;;;0.20;99.90;;;;;;4896099;29;20059;-69
2022/01/09 06:32:31;;;;;;;14.40;5.32;;;0.20;99.90;;;;;;4878898;29;20032;-69
2022/01/09 06:34:57;;;;;;;9.13;4.38;;;0.30;99.90;;;;;;4885659;29;20088;-69
2022/01/09 06:37:22;;;;;;;8.93;4.00;;;0.20;99.90;;;;;;4895651;29;20492;-69
2022/01/09 06:39:48;;;;;;;7.72;4.00;;;0.30;99.90;;;;;;4887196;29;20036;-69
2022/01/09 06:42:13;;;;;;;14.13;4.32;;;0.30;99.90;;;;;;4898294;29;20040;-69
2022/01/09 06:44:39;;;;;;;9.65;4.22;;;0.30;99.90;;;;;;4902906;29;20039;-69
2022/01/09 06:47:04;;;;;;;8.65;4.30;;;0.30;99.90;;;;;;4896310;29;20513;-69
2022/01/09 06:49:30;;;;;;;8.18;4.28;;;0.30;99.90;;;;;;4893835;29;20048;-69
2022/01/09 06:51:55;;;;;;;8.48;4.20;;;0.30;99.90;;;;;;4882223;29;20032;-69
2022/01/09 06:54:21;;;;;;;13.38;4.28;;;0.40;99.90;;;;;;4898098;29;20036;-69
2022/01/09 06:56:46;;;;;;;9.30;3.80;;;0.40;99.90;;;;;;4896717;29;20118;-69
2022/01/09 06:59:11;;;;;;;6.32;3.80;;;0.40;99.90;;;;;;4897285;29;20051;-69
2022/01/09 07:01:37;;;;;;;8.55;3.83;;;0.40;99.90;;;;;;4883048;29;20048;-69
2022/01/09 07:04:02;;;;;;;7.82;3.83;;;0.70;99.90;;;;;;4882326;29;20123;-69
2022/01/09 07:06:28;;;;;;;8.80;4.03;;;0.50;99.90;;;;;;4891102;29;20056;-69
2022/01/09 07:08:53;;;;;;;12.27;4.25;;;0.50;99.90;;;;;;4885531;29;20020;-69
2022/01/09 07:11:19;;;;;;;6.88;3.95;;;0.50;99.90;;;;;;4899961;29;20194;-69
2022/01/09 07:13:44;;;;;;;5.97;3.78;;;0.50;99.90;;;;;;4898108;29;20497;-70
2022/01/09 07:16:10;;;;;;;6.60;3.22;;;0.60;99.90;;;;;;4886850;29;20103;-69
2022/01/09 07:18:35;;;;;;;7.50;3.35;;;0.60;99.90;;;;;;4895755;29;20039;-69
2022/01/09 07:21:03;;;;;;;10.93;4.05;;;0.70;99.90;;;;;;4898523;29;20119;-69
2022/01/09 07:23:28;;;;;;;7.82;4.07;;;0.70;99.90;;;;;;4892874;29;20045;-69
2022/01/09 07:25:54;;;;;;;6.25;3.40;;;0.70;99.90;;;;;;4891707;29;20034;-69
2022/01/09 07:28:19;;;;;;;8.07;3.38;;;0.70;99.90;;;;;;4883776;29;20056;-69
2022/01/09 07:30:45;;;;;;;8.25;3.53;;;0.80;99.90;;;;;;4883375;29;20158;-69
2022/01/09 07:33:10;;;;;;;5.68;3.40;;;0.80;99.90;;;;;;4898353;29;20114;-69
2022/01/09 07:35:36;;;;;;;5.68;2.90;;;0.80;99.90;;;;;;4893507;29;20123;-69
2022/01/09 07:38:01;;;;;;;7.70;3.10;;;0.80;99.90;;;;;;4894646;29;20603;-69
2022/01/09 07:40:28;;;;;;;7.32;3.30;;;0.90;99.90;;;;;;4881047;29;20039;-69
2022/01/09 07:42:53;;;;;;;17.02;3.72;;;0.90;99.90;;;;;;4895561;29;20074;-70
2022/01/09 07:45:24;;;;;;;6.13;3.22;;;0.90;99.90;;;;;;4892026;29;20146;-69
2022/01/09 07:47:49;;;;;;;6.68;3.33;;;0.90;99.90;;;;;;4895730;29;20036;-69
2022/01/09 07:50:15;;;;;;;6.68;3.30;;;0.90;99.90;;;;;;4897226;29;20107;-69
2022/01/09 07:52:40;;;;;;;5.13;3.17;;;0.90;99.90;;;;;;4898285;29;20560;-69
2022/01/09 07:55:06;;;;;;;10.27;4.10;;;0.90;99.90;;;;;;4894727;29;20100;-69
2022/01/09 07:57:31;;;;;;;7.25;3.17;;;1.00;99.90;;;;;;4880829;29;20043;-69
2022/01/09 07:59:58;;;;;;;6.05;2.80;;;1.00;99.90;;;;;;4882508;29;20980;-69
2022/01/09 08:02:23;;;;;;;6.07;3.50;;;1.00;99.90;;;;;;4893041;29;20036;-69
2022/01/09 08:04:49;;;;;;;6.45;3.80;;;1.10;99.90;;;;;;4880815;29;20047;-69
2022/01/09 08:07:15;;;;;;;7.65;3.08;;;1.10;99.90;;;;;;4879607;29;20294;-69
2022/01/09 08:09:42;;;;;;;9.00;4.07;;;1.10;99.90;;;;;;4895666;29;21150;-69
2022/01/09 08:12:10;;;;;;;10.07;3.65;;;1.00;99.90;;;;;;4891292;29;20631;-69
2022/01/09 08:14:36;;;;;;;6.75;3.60;;;1.10;99.90;;;;;;4883824;29;20540;-69
2022/01/09 08:17:01;;;;;;;9.63;3.72;;;1.10;99.90;;;;;;4892627;29;20040;-69
2022/01/09 08:19:27;;;;;;;7.43;3.60;;;1.10;99.90;;;;;;4882001;29;20584;-69
2022/01/09 08:21:52;;;;;;;5.30;3.35;;;1.10;99.90;;;;;;4894778;29;20036;-69
2022/01/09 08:24:17;;;;;;;8.77;3.55;;;1.20;99.90;;;;;;4894201;29;20038;-69
2022/01/09 08:26:43;;;;;;;9.20;3.65;;;1.20;99.90;;;;;;4878376;29;20585;-69
2022/01/09 08:29:08;;;;;;;7.55;3.22;;;1.20;99.90;;;;;;4869961;29;20032;-69
2022/01/09 08:31:34;;;;;;;6.80;3.53;;;1.20;99.90;;;;;;4896097;29;20068;-69
2022/01/09 08:33:59;;;;;;;5.30;2.80;;;1.20;99.90;;;;;;4891889;29;20084;-69
2022/01/09 08:36:25;;;;;;;4.90;2.83;;;1.30;99.90;;;;;;4895031;29;20036;-69
2022/01/09 08:38:50;;;;;;;9.57;3.95;;;1.20;99.90;;;;;;4885757;29;20564;-69
2022/01/09 08:41:16;;;;;;;6.18;3.00;;;1.20;99.90;;;;;;4893733;29;20087;-69
2022/01/09 08:43:41;;;;;;;7.78;3.13;;;1.30;99.90;;;;;;4883792;29;20068;-69
2022/01/09 08:46:07;;;;;;;7.90;3.10;;;1.40;99.90;;;;;;4878703;29;20045;-69
2022/01/09 08:48:32;;;;;;;8.07;3.47;;;1.40;99.90;;;;;;4896738;29;20103;-69
2022/01/09 08:50:58;;;;;;;6.22;3.13;;;1.50;99.90;;;;;;4897995;29;20032;-69
2022/01/09 08:53:23;;;;;;;7.40;3.25;;;1.40;99.90;;;;;;4902420;29;20044;-69
2022/01/09 08:55:49;;;;;;;6.53;3.40;;;1.50;99.90;;;;;;4877380;29;20115;-69
2022/01/09 08:58:14;;;;;;;7.50;2.70;;;1.50;99.90;;;;;;4894756;29;20036;-69
2022/01/09 09:00:40;;;;;;;6.97;2.92;;;1.50;99.90;;;;;;4891756;29;20756;-69
2022/01/09 09:03:05;;;;;;;6.18;3.05;;;1.60;99.90;;;;;;4897759;29;20781;-69
2022/01/09 09:05:31;;;;;;;7.13;3.20;;;1.70;99.90;;;;;;4902745;29;20032;-69
2022/01/09 09:07:58;;;;;;;5.43;2.63;;;1.70;99.90;;;;;;4898715;29;20070;-69
2022/01/09 09:10:23;;;;;;;6.85;2.95;;;1.70;99.90;;;;;;4899860;29;20043;-69
2022/01/09 09:12:49;;;;;;;5.63;3.03;;;1.70;99.90;;;;;;4883729;29;20032;-70
2022/01/09 09:15:14;;;;;;;7.53;3.15;;;1.80;99.90;;;;;;4893948;29;20036;-69
2022/01/09 09:17:40;;;;;;;8.00;2.92;;;1.70;99.90;;;;;;4896017;29;20036;-69
2022/01/09 09:20:05;;;;;;;5.85;2.97;;;1.80;99.90;;;;;;4895871;29;20249;-69
2022/01/09 09:22:30;;;;;;;6.38;3.40;;;1.80;99.90;;;;;;4892402;29;20139;-70
2022/01/09 09:24:56;;;;;;;7.65;3.63;;;1.80;99.90;;;;;;4892564;29;20196;-69
2022/01/09 09:27:21;;;;;;;5.65;3.35;;;1.80;99.90;;;;;;4895590;29;20465;-69
2022/01/09 09:29:47;;;;;;;9.45;4.20;;;1.80;99.90;;;;;;4898856;29;20028;-69
2022/01/09 09:32:13;;;;;;;7.57;3.35;;;1.80;99.90;;;;;;4900749;29;20043;-69
2022/01/09 09:34:39;;;;;;;6.43;3.03;;;1.90;99.90;;;;;;4904999;29;20043;-69
2022/01/09 09:37:04;;;;;;;8.20;3.70;;;1.90;99.90;;;;;;4886376;29;20040;-69
2022/01/09 09:39:30;;;;;;;7.95;3.92;;;1.90;99.90;;;;;;4898766;29;20044;-70
2022/01/09 09:41:55;;;;;;;6.28;3.15;;;2.00;99.90;;;;;;4884565;29;20080;-69
2022/01/09 09:44:21;;;;;;;12.30;4.57;;;2.00;99.90;;;;;;4887862;29;20036;-70
2022/01/09 09:46:46;;;;;;;9.27;4.22;;;2.00;99.90;;;;;;4898266;29;20038;-70
2022/01/09 09:49:12;;;;;;;12.73;5.07;;;2.00;99.90;;;;;;4878189;29;20036;-71
2022/01/09 09:51:37;;;;;;;9.73;3.55;;;2.00;99.90;;;;;;4894627;29;20076;-69
2022/01/09 09:54:03;;;;;;;12.40;4.60;;;2.00;99.90;;;;;;4899065;29;20474;-71
2022/01/09 09:56:28;;;;;;;8.32;3.95;;;2.10;99.90;;;;;;4905816;29;20036;-70
2022/01/09 09:58:54;;;;;;;10.45;4.10;;;2.10;99.90;;;;;;4897996;29;20047;-70
2022/01/09 10:01:19;;;;;;;8.98;4.18;;;2.10;99.90;;;;;;4899122;29;20068;-68
2022/01/09 10:03:45;;;;;;;8.45;4.13;;;2.20;99.90;;;;;;4902952;29;20658;-69
2022/01/09 10:06:10;;;;;;;11.23;3.65;;;2.20;99.90;;;;;;4886692;29;20048;-69
2022/01/09 10:08:36;;;;;;;9.25;4.43;;;2.20;99.90;;;;;;4896468;29;20119;-71
2022/01/09 10:11:01;;;;;;;8.30;4.60;;;2.30;99.90;;;;;;4905337;29;20028;-71
2022/01/09 10:13:27;;;;;;;8.80;4.07;;;2.20;99.90;;;;;;4898095;29;20037;-70
2022/01/09 10:15:52;;;;;;;42.58;15.00;;;2.20;99.90;;;;;;4897828;29;20036;-71
2022/01/09 10:18:18;;;;;;;10.82;3.38;;;2.20;99.90;;;;;;4896167;29;20772;-70
2022/01/09 10:20:43;;;;;;;6.88;3.70;;;2.20;99.90;;;;;;4901005;29;20544;-70
2022/01/09 10:23:09;;;;;;;7.82;4.45;;;2.20;99.90;;;;;;4889142;29;20597;-70
2022/01/09 10:25:36;;;;;;;9.52;3.65;;;2.30;99.90;;;;;;4900628;29;20171;-70
2022/01/09 10:28:02;;;;;;;9.90;4.00;;;2.30;99.90;;;;;;4907784;29;20039;-71
2022/01/09 10:30:27;;;;;;;10.30;3.75;;;2.20;99.90;;;;;;4883647;29;20036;-70
2022/01/09 10:32:53;;;;;;;7.47;3.22;;;2.30;99.90;;;;;;4900217;29;20028;-72
2022/01/09 10:35:18;;;;;;;9.07;3.28;;;2.40;99.90;;;;;;4896396;29;20098;-71
2022/01/09 10:37:44;;;;;;;7.45;3.38;;;2.50;99.90;;;;;;4896024;29;20040;-69
2022/01/09 10:40:09;;;;;;;6.65;3.45;;;2.60;99.90;;;;;;4886438;29;20035;-70
2022/01/09 10:42:35;;;;;;;6.18;3.38;;;2.60;99.90;;;;;;4895382;29;20047;-70
2022/01/09 10:45:00;;;;;;;7.88;3.20;;;2.60;99.90;;;;;;4885645;29;20036;-70
2022/01/09 10:47:26;;;;;;;5.43;2.75;;;2.80;99.90;;;;;;4877311;29;20032;-70
2022/01/09 10:49:51;;;;;;;6.22;3.17;;;2.70;99.90;;;;;;4895362;29;20039;-71
2022/01/09 10:52:17;;;;;;;9.10;3.45;;;2.80;99.90;;;;;;4898215;29;20035;-70
2022/01/09 10:54:46;;;;;;;5.82;3.00;;;2.80;99.90;;;;;;4897518;29;20075;-70
2022/01/09 10:57:11;;;;;;;7.88;3.13;;;2.90;99.90;;;;;;4898824;29;20826;-71
2022/01/09 10:59:37;;;;;;;7.95;3.65;;;2.90;99.90;;;;;;4886904;29;20036;-71
2022/01/09 11:02:02;;;;;;;14.52;4.22;;;3.00;99.90;;;;;;4896136;29;20029;-71
2022/01/09 11:04:28;;;;;;;8.02;3.50;;;2.90;99.90;;;;;;4881084;29;20500;-70
2022/01/09 11:06:53;;;;;;;22.90;8.57;;;3.00;99.90;;;;;;4896625;29;20096;-71
2022/01/09 11:09:21;;;;;;;10.10;3.78;;;3.00;99.90;;;;;;4893006;29;20139;-71
2022/01/09 11:11:47;;;;;;;6.28;3.15;;;3.00;99.90;;;;;;4896309;29;20111;-70
2022/01/09 11:14:17;;;;;;;9.32;4.00;;;2.90;99.90;;;;;;4900104;29;20158;-69
2022/01/09 11:16:47;;;;;;;7.63;3.55;;;3.00;99.90;;;;;;4867448;29;20556;-69
2022/01/09 11:19:13;;;;;;;6.78;3.50;;;3.00;99.90;;;;;;4884752;29;20107;-70
2022/01/09 11:21:38;;;;;;;5.93;3.03;;;3.00;99.90;;;;;;4899841;29;20445;-69
2022/01/09 11:24:04;;;;;;;7.00;3.45;;;3.10;99.90;;;;;;4897709;29;20383;-70
2022/01/09 11:26:29;;;;;;;7.28;2.90;;;3.10;99.90;;;;;;4884425;29;20874;-70
2022/01/09 11:28:55;;;;;;;6.80;3.28;;;3.10;99.90;;;;;;4895724;29;20020;-70
2022/01/09 11:31:20;;;;;;;7.00;3.17;;;3.10;99.90;;;;;;4896104;29;20497;-69
2022/01/09 11:33:46;;;;;;;7.35;3.45;;;3.20;99.90;;;;;;4883654;29;20247;-69
2022/01/09 11:36:11;;;;;;;6.25;3.50;;;3.20;99.90;;;;;;4882313;29;20078;-70
2022/01/09 11:38:37;;;;;;;9.73;3.92;;;3.40;99.90;;;;;;4895157;29;20048;-71
2022/01/09 11:41:02;;;;;;;10.02;4.45;;;3.50;99.90;;;;;;4904066;29;20139;-70
2022/01/09 11:43:28;;;;;;;6.07;3.30;;;3.60;99.90;;;;;;4898288;29;20043;-70
2022/01/09 11:45:53;;;;;;;6.60;3.33;;;3.70;99.90;;;;;;4892770;29;20473;-70
2022/01/09 11:48:19;;;;;;;10.60;3.88;;;3.70;99.90;;;;;;4902538;29;20070;-71
2022/01/09 11:50:44;;;;;;;7.47;3.47;;;3.70;99.90;;;;;;4897249;29;20075;-70
2022/01/09 11:53:10;;;;;;;4.75;3.00;;;3.80;99.90;;;;;;4877012;29;20069;-70
2022/01/09 11:55:35;;;;;;;6.60;3.42;;;3.90;99.90;;;;;;4880885;29;20079;-70
2022/01/09 11:58:03;;;;;;;6.63;2.92;;;3.80;99.90;;;;;;4892100;29;20028;-71
2022/01/09 12:00:29;;;;;;;7.85;3.72;;;3.70;99.90;;;;;;4881835;29;20040;-71
2022/01/09 12:02:54;;;;;;;6.93;2.90;;;3.60;99.90;;;;;;4896949;29;20040;-70
2022/01/09 12:05:19;;;;;;;7.07;3.20;;;3.60;99.90;;;;;;4884697;29;20670;-71
2022/01/09 12:07:45;;;;;;;6.55;3.08;;;3.60;99.90;;;;;;4898017;29;20107;-71
2022/01/09 12:10:10;;;;;;;5.90;3.08;;;3.60;99.90;;;;;;4901418;29;20039;-71
2022/01/09 12:12:36;;;;;;;8.95;3.20;;;3.70;99.90;;;;;;4901306;29;20028;-71
2022/01/09 12:15:04;;;;;;;4.60;2.72;;;3.70;99.90;;;;;;4901334;29;20036;-71
2022/01/09 12:17:31;;;;;;;7.50;3.25;;;3.80;99.90;;;;;;4885346;29;20183;-71
2022/01/09 12:20:04;;;;;;;5.05;2.75;;;3.70;99.90;;;;;;4896590;29;20842;-71
2022/01/09 12:22:29;;;;;;;6.80;2.90;;;3.70;99.90;;;;;;4880278;29;20088;-71
2022/01/09 12:24:55;;;;;;;7.25;3.45;;;3.80;99.90;;;;;;4886153;29;20477;-70
2022/01/09 12:27:20;;;;;;;5.63;3.22;;;3.70;99.90;;;;;;4901217;29;20068;-71
2022/01/09 12:29:47;;;;;;;7.05;3.20;;;3.80;99.90;;;;;;4885522;29;20458;-71
2022/01/09 12:32:12;;;;;;;7.50;3.28;;;3.80;99.90;;;;;;4898720;29;20088;-70
2022/01/09 12:34:37;;;;;;;6.68;3.03;;;3.80;99.90;;;;;;4889704;29;20047;-71
2022/01/09 12:37:03;;;;;;;5.13;2.92;;;3.80;99.90;;;;;;4904975;29;20140;-71
2022/01/09 12:39:28;;;;;;;6.32;3.20;;;4.00;99.90;;;;;;4889906;29;20035;-71
2022/01/09 12:41:54;;;;;;;11.88;5.40;;;4.00;99.90;;;;;;4883440;29;20048;-70
2022/01/09 12:44:21;;;;;;;9.70;4.15;;;4.10;99.90;;;;;;4876678;29;20036;-70